sensor_id;sensor_type;location;lat;lon;timestamp;temperature;humidity
6863;DHT22;3470;48.738;9.616;2022-08-18T00:00:26;17.50;99.90
6863;DHT22;3470;48.738;9.616;2022-08-18T00:02:52;17.60;99.90
6863;DHT22;3470;48.738;9.616;2022-08-18T00:05:18;17.60;99.90
6863;DHT22;3470;48.738;9.616;2022-08-18T00:07:45;17.60;99.90
6863;DHT22;3470;48.738;9.616;2022-08-18T00:10:11;17.60;99.90
6863;DHT22;3470;48.738;9.616;2022-08-18T00:12:39;17.60;99.90
6863;DHT22;3470;48.738;9.616;2022-08-18T00:15:08;17.60;99.90
6863;DHT22;3470;48.738;9.616;2022-08-18T00:17:35;17.60;99.90
6863;DHT22;3470;48.738;9.616;2022-08-18T00:20:03;17.50;99.90
6863;DHT22;3470;48.738;9.616;2022-08-18T00:22:28;17.50;99.90
6863;DHT22;3470;48.738;9.616;2022-08-18T00:24:55;17.50;99.90
6863;DHT22;3470;48.738;9.616;2022-08-18T00:27:32;17.50;99.90
6863;DHT22;3470;48.738;9.616;2022-08-18T00:30:00;17.40;99.90
6863;DHT22;3470;48.738;9.616;2022-08-18T00:32:29;17.40;99.90
6863;DHT22;3470;48.738;9.616;2022-08-18T00:34:55;17.40;99.90
6863;DHT22;3470;48.738;9.616;2022-08-18T00:37:22;17.40;99.90
6863;DHT22;3470;48.738;9.616;2022-08-18T00:39:52;17.40;99.90
6863;DHT22;3470;48.738;9.616;2022-08-18T00:42:22;17.40;99.90
6863;DHT22;3470;48.738;9.616;2022-08-18T00:44:48;17.30;99.90
6863;DHT22;3470;48.738;9.616;2022-08-18T00:47:14;17.30;99.90
6863;DHT22;3470;48.738;9.616;2022-08-18T00:49:40;17.40;99.90
6863;DHT22;3470;48.738;9.616;2022-08-18T00:52:08;17.40;99.90
6863;DHT22;3470;48.738;9.616;2022-08-18T00:54:36;17.40;99.90
6863;DHT22;3470;48.738;9.616;2022-08-18T00:57:07;17.40;99.90
6863;DHT22;3470;48.738;9.616;2022-08-18T01:02:16;17.30;99.90
6863;DHT22;3470;48.738;9.616;2022-08-18T01:07:23;17.30;99.90
6863;DHT22;3470;48.738;9.616;2022-08-18T01:09:50;17.30;99.90
6863;DHT22;3470;48.738;9.616;2022-08-18T01:12:17;17.30;99.90
6863;DHT22;3470;48.738;9.616;2022-08-18T01:14:43;17.30;99.90
6863;DHT22;3470;48.738;9.616;2022-08-18T01:17:10;17.30;99.90
6863;DHT22;3470;48.738;9.616;2022-08-18T01:19:55;17.30;99.90
6863;DHT22;3470;48.738;9.616;2022-08-18T01:25:15;17.30;99.90
6863;DHT22;3470;48.738;9.616;2022-08-18T01:27:59;17.30;99.90
6863;DHT22;3470;48.738;9.616;2022-08-18T01:30:29;17.30;99.90
6863;DHT22;3470;48.738;9.616;2022-08-18T01:32:55;17.30;99.90
6863;DHT22;3470;48.738;9.616;2022-08-18T01:35:22;17.30;99.90
6863;DHT22;3470;48.738;9.616;2022-08-18T01:37:50;17.30;99.90
6863;DHT22;3470;48.738;9.616;2022-08-18T01:40:21;17.30;99.90
6863;DHT22;3470;48.738;9.616;2022-08-18T01:42:47;17.30;99.90
6863;DHT22;3470;48.738;9.616;2022-08-18T01:45:15;17.30;99.90
6863;DHT22;3470;48.738;9.616;2022-08-18T01:47:42;17.30;99.90
6863;DHT22;3470;48.738;9.616;2022-08-18T01:50:08;17.30;99.90
6863;DHT22;3470;48.738;9.616;2022-08-18T01:52:37;17.30;99.90
6863;DHT22;3470;48.738;9.616;2022-08-18T01:55:03;17.30;99.90
6863;DHT22;3470;48.738;9.616;2022-08-18T01:57:29;17.30;99.90
6863;DHT22;3470;48.738;9.616;2022-08-18T01:59:55;17.30;99.90
6863;DHT22;3470;48.738;9.616;2022-08-18T02:02:27;17.20;99.90
6863;DHT22;3470;48.738;9.616;2022-08-18T02:04:58;17.20;99.90
6863;DHT22;3470;48.738;9.616;2022-08-18T02:07:25;17.20;99.90
6863;DHT22;3470;48.738;9.616;2022-08-18T02:09:51;17.20;99.90
6863;DHT22;3470;48.738;9.616;2022-08-18T02:12:17;17.20;99.90
6863;DHT22;3470;48.738;9.616;2022-08-18T02:14:43;17.20;99.90
6863;DHT22;3470;48.738;9.616;2022-08-18T02:17:11;17.20;99.90
6863;DHT22;3470;48.738;9.616;2022-08-18T02:19:40;17.20;99.90
6863;DHT22;3470;48.738;9.616;2022-08-18T02:22:08;17.20;99.90
6863;DHT22;3470;48.738;9.616;2022-08-18T02:24:35;17.20;99.90
6863;DHT22;3470;48.738;9.616;2022-08-18T02:27:01;17.10;99.90
6863;DHT22;3470;48.738;9.616;2022-08-18T02:29:26;17.10;99.90
6863;DHT22;3470;48.738;9.616;2022-08-18T02:31:52;17.10;99.90
6863;DHT22;3470;48.738;9.616;2022-08-18T02:34:18;17.10;99.90
6863;DHT22;3470;48.738;9.616;2022-08-18T02:36:44;17.10;99.90
6863;DHT22;3470;48.738;9.616;2022-08-18T02:39:10;17.10;99.90
6863;DHT22;3470;48.738;9.616;2022-08-18T02:41:35;17.10;99.90
6863;DHT22;3470;48.738;9.616;2022-08-18T02:44:01;17.10;99.90
6863;DHT22;3470;48.738;9.616;2022-08-18T02:46:27;17.20;99.90
6863;DHT22;3470;48.738;9.616;2022-08-18T02:48:53;17.10;99.90
6863;DHT22;3470;48.738;9.616;2022-08-18T02:51:20;17.20;99.90
6863;DHT22;3470;48.738;9.616;2022-08-18T02:53:47;17.10;99.90
6863;DHT22;3470;48.738;9.616;2022-08-18T02:56:21;17.10;99.90
6863;DHT22;3470;48.738;9.616;2022-08-18T02:59:06;17.20;99.90
6863;DHT22;3470;48.738;9.616;2022-08-18T03:01:38;17.20;99.90
6863;DHT22;3470;48.738;9.616;2022-08-18T03:04:06;17.10;99.90
6863;DHT22;3470;48.738;9.616;2022-08-18T03:06:33;17.10;99.90
6863;DHT22;3470;48.738;9.616;2022-08-18T03:09:01;17.20;99.90
6863;DHT22;3470;48.738;9.616;2022-08-18T03:11:28;17.20;99.90
6863;DHT22;3470;48.738;9.616;2022-08-18T03:13:54;17.20;99.90
6863;DHT22;3470;48.738;9.616;2022-08-18T03:16:21;17.30;99.90
6863;DHT22;3470;48.738;9.616;2022-08-18T03:18:49;17.40;99.90
6863;DHT22;3470;48.738;9.616;2022-08-18T03:21:20;17.40;99.90
6863;DHT22;3470;48.738;9.616;2022-08-18T03:23:46;17.40;99.90
6863;DHT22;3470;48.738;9.616;2022-08-18T03:26:14;17.40;99.90
6863;DHT22;3470;48.738;9.616;2022-08-18T03:28:43;17.40;99.90
6863;DHT22;3470;48.738;9.616;2022-08-18T03:31:11;17.30;99.90
6863;DHT22;3470;48.738;9.616;2022-08-18T03:33:39;17.20;99.90
6863;DHT22;3470;48.738;9.616;2022-08-18T03:36:11;17.10;99.90
6863;DHT22;3470;48.738;9.616;2022-08-18T03:38:38;17.10;99.90
6863;DHT22;3470;48.738;9.616;2022-08-18T03:41:12;17.00;99.90
6863;DHT22;3470;48.738;9.616;2022-08-18T03:43:38;17.10;99.90
6863;DHT22;3470;48.738;9.616;2022-08-18T03:46:07;17.10;99.90
6863;DHT22;3470;48.738;9.616;2022-08-18T03:48:35;17.10;99.90
6863;DHT22;3470;48.738;9.616;2022-08-18T03:51:09;17.00;99.90
6863;DHT22;3470;48.738;9.616;2022-08-18T03:53:36;17.00;99.90
6863;DHT22;3470;48.738;9.616;2022-08-18T03:56:11;17.00;99.90
6863;DHT22;3470;48.738;9.616;2022-08-18T03:58:53;17.00;99.90
6863;DHT22;3470;48.738;9.616;2022-08-18T04:01:21;17.00;99.90
6863;DHT22;3470;48.738;9.616;2022-08-18T04:03:52;17.00;99.90
6863;DHT22;3470;48.738;9.616;2022-08-18T04:06:20;16.90;99.90
6863;DHT22;3470;48.738;9.616;2022-08-18T04:08:50;16.90;99.90
6863;DHT22;3470;48.738;9.616;2022-08-18T04:11:16;16.80;99.90
6863;DHT22;3470;48.738;9.616;2022-08-18T04:13:41;16.80;99.90
6863;DHT22;3470;48.738;9.616;2022-08-18T04:16:07;16.90;99.90
6863;DHT22;3470;48.738;9.616;2022-08-18T04:18:33;16.90;99.90
6863;DHT22;3470;48.738;9.616;2022-08-18T04:21:09;16.90;99.90
6863;DHT22;3470;48.738;9.616;2022-08-18T04:23:35;16.90;99.90
6863;DHT22;3470;48.738;9.616;2022-08-18T04:26:02;16.90;99.90
6863;DHT22;3470;48.738;9.616;2022-08-18T04:28:28;16.90;99.90
6863;DHT22;3470;48.738;9.616;2022-08-18T04:30:54;16.90;99.90
6863;DHT22;3470;48.738;9.616;2022-08-18T04:33:27;16.90;99.90
6863;DHT22;3470;48.738;9.616;2022-08-18T04:35:54;16.80;99.90
6863;DHT22;3470;48.738;9.616;2022-08-18T04:38:21;16.80;99.90
6863;DHT22;3470;48.738;9.616;2022-08-18T04:40:47;16.80;99.90
6863;DHT22;3470;48.738;9.616;2022-08-18T04:43:13;16.70;99.90
6863;DHT22;3470;48.738;9.616;2022-08-18T04:45:44;16.70;99.90
6863;DHT22;3470;48.738;9.616;2022-08-18T04:48:10;16.70;99.90
6863;DHT22;3470;48.738;9.616;2022-08-18T04:50:37;16.70;99.90
6863;DHT22;3470;48.738;9.616;2022-08-18T04:53:03;16.70;99.90
6863;DHT22;3470;48.738;9.616;2022-08-18T04:55:50;16.80;99.90
6863;DHT22;3470;48.738;9.616;2022-08-18T04:58:23;16.80;99.90
6863;DHT22;3470;48.738;9.616;2022-08-18T05:00:57;16.90;99.90
6863;DHT22;3470;48.738;9.616;2022-08-18T05:03:23;17.00;99.90
6863;DHT22;3470;48.738;9.616;2022-08-18T05:05:52;17.00;99.90
6863;DHT22;3470;48.738;9.616;2022-08-18T05:08:18;17.10;99.90
6863;DHT22;3470;48.738;9.616;2022-08-18T05:10:43;17.20;99.90
6863;DHT22;3470;48.738;9.616;2022-08-18T05:13:09;17.20;99.90
6863;DHT22;3470;48.738;9.616;2022-08-18T05:15:35;17.20;99.90
6863;DHT22;3470;48.738;9.616;2022-08-18T05:18:02;17.30;99.90
6863;DHT22;3470;48.738;9.616;2022-08-18T05:20:29;17.40;99.90
6863;DHT22;3470;48.738;9.616;2022-08-18T05:22:55;17.40;99.90
6863;DHT22;3470;48.738;9.616;2022-08-18T05:25:21;17.40;99.90
6863;DHT22;3470;48.738;9.616;2022-08-18T05:27:47;17.40;99.90
6863;DHT22;3470;48.738;9.616;2022-08-18T05:30:13;17.40;99.90
6863;DHT22;3470;48.738;9.616;2022-08-18T05:32:42;17.50;99.90
6863;DHT22;3470;48.738;9.616;2022-08-18T05:35:35;17.60;99.90
6863;DHT22;3470;48.738;9.616;2022-08-18T05:38:24;17.70;99.90
6863;DHT22;3470;48.738;9.616;2022-08-18T05:41:04;17.70;99.90
6863;DHT22;3470;48.738;9.616;2022-08-18T05:43:31;17.70;99.90
6863;DHT22;3470;48.738;9.616;2022-08-18T05:45:58;17.80;99.90
6863;DHT22;3470;48.738;9.616;2022-08-18T05:48:25;17.80;99.90
6863;DHT22;3470;48.738;9.616;2022-08-18T05:50:51;18.00;99.90
6863;DHT22;3470;48.738;9.616;2022-08-18T05:53:18;18.00;99.90
6863;DHT22;3470;48.738;9.616;2022-08-18T05:56:04;17.90;99.90
6863;DHT22;3470;48.738;9.616;2022-08-18T05:58:50;17.80;99.90
6863;DHT22;3470;48.738;9.616;2022-08-18T06:01:23;17.90;99.90
6863;DHT22;3470;48.738;9.616;2022-08-18T06:04:06;17.80;99.90
6863;DHT22;3470;48.738;9.616;2022-08-18T06:06:35;17.90;99.90
6863;DHT22;3470;48.738;9.616;2022-08-18T06:09:20;18.00;99.90
6863;DHT22;3470;48.738;9.616;2022-08-18T06:11:49;18.00;99.90
6863;DHT22;3470;48.738;9.616;2022-08-18T06:14:15;18.00;99.90
6863;DHT22;3470;48.738;9.616;2022-08-18T06:16:46;18.00;99.90
6863;DHT22;3470;48.738;9.616;2022-08-18T06:24:52;18.30;99.90
6863;DHT22;3470;48.738;9.616;2022-08-18T06:27:43;18.50;99.90
6863;DHT22;3470;48.738;9.616;2022-08-18T06:30:18;18.90;99.90
6863;DHT22;3470;48.738;9.616;2022-08-18T06:32:52;19.30;99.90
6863;DHT22;3470;48.738;9.616;2022-08-18T06:35:32;19.50;99.90
6863;DHT22;3470;48.738;9.616;2022-08-18T06:38:26;19.70;99.90
6863;DHT22;3470;48.738;9.616;2022-08-18T06:45:02;19.50;99.90
6863;DHT22;3470;48.738;9.616;2022-08-18T06:47:08;19.50;99.90
6863;DHT22;3470;48.738;9.616;2022-08-18T06:54:51;19.60;99.90
6863;DHT22;3470;48.738;9.616;2022-08-18T06:57:36;19.70;99.90
6863;DHT22;3470;48.738;9.616;2022-08-18T07:00:19;19.70;99.90
6863;DHT22;3470;48.738;9.616;2022-08-18T07:02:57;19.80;99.90
6863;DHT22;3470;48.738;9.616;2022-08-18T07:05:30;19.80;99.90
6863;DHT22;3470;48.738;9.616;2022-08-18T07:08:07;19.90;99.90
6863;DHT22;3470;48.738;9.616;2022-08-18T07:10:42;20.10;99.90
6863;DHT22;3470;48.738;9.616;2022-08-18T07:13:18;20.50;99.90
6863;DHT22;3470;48.738;9.616;2022-08-18T07:15:44;20.80;99.90
6863;DHT22;3470;48.738;9.616;2022-08-18T07:18:11;21.30;99.90
6863;DHT22;3470;48.738;9.616;2022-08-18T07:20:49;21.60;99.90
6863;DHT22;3470;48.738;9.616;2022-08-18T07:23:28;21.80;99.90
6863;DHT22;3470;48.738;9.616;2022-08-18T07:26:15;21.90;99.90
6863;DHT22;3470;48.738;9.616;2022-08-18T07:28:51;22.20;99.90
6863;DHT22;3470;48.738;9.616;2022-08-18T07:31:41;22.30;99.90
6863;DHT22;3470;48.738;9.616;2022-08-18T07:34:38;22.40;99.90
6863;DHT22;3470;48.738;9.616;2022-08-18T07:39:53;22.10;99.90
6863;DHT22;3470;48.738;9.616;2022-08-18T07:42:42;21.90;99.90
6863;DHT22;3470;48.738;9.616;2022-08-18T07:45:32;21.70;99.90
6863;DHT22;3470;48.738;9.616;2022-08-18T07:50:55;21.30;99.90
6863;DHT22;3470;48.738;9.616;2022-08-18T07:54:16;21.30;99.90
6863;DHT22;3470;48.738;9.616;2022-08-18T07:56:55;21.20;99.90
6863;DHT22;3470;48.738;9.616;2022-08-18T07:59:41;20.80;99.90
6863;DHT22;3470;48.738;9.616;2022-08-18T08:10:38;19.40;99.90
6863;DHT22;3470;48.738;9.616;2022-08-18T08:16:08;19.20;99.90
6863;DHT22;3470;48.738;9.616;2022-08-18T08:19:14;19.20;99.90
6863;DHT22;3470;48.738;9.616;2022-08-18T08:21:59;19.20;99.90
6863;DHT22;3470;48.738;9.616;2022-08-18T08:24:42;19.20;99.90
6863;DHT22;3470;48.738;9.616;2022-08-18T08:27:15;19.10;99.90
6863;DHT22;3470;48.738;9.616;2022-08-18T08:32:48;19.50;99.90
6863;DHT22;3470;48.738;9.616;2022-08-18T08:38:26;20.00;99.90
6863;DHT22;3470;48.738;9.616;2022-08-18T08:41:06;20.20;99.90
6863;DHT22;3470;48.738;9.616;2022-08-18T08:43:37;20.50;99.90
6863;DHT22;3470;48.738;9.616;2022-08-18T08:46:12;20.70;99.90
6863;DHT22;3470;48.738;9.616;2022-08-18T08:48:44;21.00;99.90
6863;DHT22;3470;48.738;9.616;2022-08-18T08:51:28;21.20;99.90
6863;DHT22;3470;48.738;9.616;2022-08-18T08:55:10;21.60;99.90
6863;DHT22;3470;48.738;9.616;2022-08-18T08:57:18;22.20;99.90
6863;DHT22;3470;48.738;9.616;2022-08-18T08:59:47;22.50;99.90
6863;DHT22;3470;48.738;9.616;2022-08-18T09:05:20;22.60;99.90
6863;DHT22;3470;48.738;9.616;2022-08-18T09:24:51;25.50;99.90
6863;DHT22;3470;48.738;9.616;2022-08-18T09:27:43;25.40;99.90
6863;DHT22;3470;48.738;9.616;2022-08-18T09:33:47;24.70;99.90
6863;DHT22;3470;48.738;9.616;2022-08-18T09:38:51;24.40;99.90
6863;DHT22;3470;48.738;9.616;2022-08-18T09:41:44;24.30;99.90
6863;DHT22;3470;48.738;9.616;2022-08-18T09:44:14;24.10;99.90
6863;DHT22;3470;48.738;9.616;2022-08-18T09:47:00;23.90;99.90
6863;DHT22;3470;48.738;9.616;2022-08-18T09:57:28;24.20;99.90
6863;DHT22;3470;48.738;9.616;2022-08-18T10:00:15;24.20;99.90
6863;DHT22;3470;48.738;9.616;2022-08-18T10:07:55;24.40;99.90
6863;DHT22;3470;48.738;9.616;2022-08-18T10:16:40;25.90;99.90
6863;DHT22;3470;48.738;9.616;2022-08-18T10:19:22;27.30;99.90
6863;DHT22;3470;48.738;9.616;2022-08-18T10:24:54;27.20;99.90
6863;DHT22;3470;48.738;9.616;2022-08-18T10:33:02;30.80;94.30
6863;DHT22;3470;48.738;9.616;2022-08-18T10:38:15;34.80;81.30
6863;DHT22;3470;48.738;9.616;2022-08-18T10:40:43;35.80;75.50
6863;DHT22;3470;48.738;9.616;2022-08-18T10:43:36;35.70;72.70
6863;DHT22;3470;48.738;9.616;2022-08-18T10:46:04;36.70;72.60
6863;DHT22;3470;48.738;9.616;2022-08-18T10:48:38;36.60;69.60
6863;DHT22;3470;48.738;9.616;2022-08-18T10:53:37;33.80;74.20
6863;DHT22;3470;48.738;9.616;2022-08-18T10:56:34;33.20;76.70
6863;DHT22;3470;48.738;9.616;2022-08-18T11:04:27;33.60;75.70
6863;DHT22;3470;48.738;9.616;2022-08-18T11:07:18;32.80;75.20
6863;DHT22;3470;48.738;9.616;2022-08-18T11:09:48;33.40;74.80
6863;DHT22;3470;48.738;9.616;2022-08-18T11:12:15;32.10;76.80
6863;DHT22;3470;48.738;9.616;2022-08-18T11:15:04;33.00;75.70
6863;DHT22;3470;48.738;9.616;2022-08-18T11:18:50;33.70;73.70
6863;DHT22;3470;48.738;9.616;2022-08-18T11:21:22;33.20;75.50
6863;DHT22;3470;48.738;9.616;2022-08-18T11:24:28;32.10;78.10
6863;DHT22;3470;48.738;9.616;2022-08-18T11:26:59;32.60;77.30
6863;DHT22;3470;48.738;9.616;2022-08-18T11:29:34;33.60;73.70
6863;DHT22;3470;48.738;9.616;2022-08-18T11:32:06;33.40;73.30
6863;DHT22;3470;48.738;9.616;2022-08-18T11:34:37;32.90;74.00
6863;DHT22;3470;48.738;9.616;2022-08-18T11:37:17;32.00;77.20
6863;DHT22;3470;48.738;9.616;2022-08-18T11:39:49;31.10;79.20
6863;DHT22;3470;48.738;9.616;2022-08-18T11:42:17;30.70;81.90
6863;DHT22;3470;48.738;9.616;2022-08-18T11:44:44;30.70;80.40
6863;DHT22;3470;48.738;9.616;2022-08-18T11:47:17;31.50;78.40
6863;DHT22;3470;48.738;9.616;2022-08-18T11:49:55;33.20;72.50
6863;DHT22;3470;48.738;9.616;2022-08-18T11:52:27;35.30;69.20
6863;DHT22;3470;48.738;9.616;2022-08-18T11:55:00;36.00;66.80
6863;DHT22;3470;48.738;9.616;2022-08-18T11:57:48;35.50;68.10
6863;DHT22;3470;48.738;9.616;2022-08-18T12:03:04;34.60;69.10
6863;DHT22;3470;48.738;9.616;2022-08-18T12:06:26;34.70;68.60
6863;DHT22;3470;48.738;9.616;2022-08-18T12:08:33;34.80;69.20
6863;DHT22;3470;48.738;9.616;2022-08-18T12:11:14;35.70;66.80
6863;DHT22;3470;48.738;9.616;2022-08-18T12:13:45;36.20;66.30
6863;DHT22;3470;48.738;9.616;2022-08-18T12:16:15;36.40;64.90
6863;DHT22;3470;48.738;9.616;2022-08-18T12:18:41;36.40;65.80
6863;DHT22;3470;48.738;9.616;2022-08-18T12:21:07;36.10;65.70
6863;DHT22;3470;48.738;9.616;2022-08-18T12:23:36;35.30;66.80
6863;DHT22;3470;48.738;9.616;2022-08-18T12:26:01;34.60;68.50
6863;DHT22;3470;48.738;9.616;2022-08-18T12:28:27;34.80;67.80
6863;DHT22;3470;48.738;9.616;2022-08-18T12:30:53;35.60;66.60
6863;DHT22;3470;48.738;9.616;2022-08-18T12:33:18;36.80;62.50
6863;DHT22;3470;48.738;9.616;2022-08-18T12:35:44;37.70;61.00
6863;DHT22;3470;48.738;9.616;2022-08-18T12:38:11;38.10;58.90
6863;DHT22;3470;48.738;9.616;2022-08-18T12:40:38;38.70;58.70
6863;DHT22;3470;48.738;9.616;2022-08-18T12:43:04;38.20;58.60
6863;DHT22;3470;48.738;9.616;2022-08-18T12:45:30;38.60;59.10
6863;DHT22;3470;48.738;9.616;2022-08-18T12:47:56;39.10;56.90
6863;DHT22;3470;48.738;9.616;2022-08-18T12:50:21;38.60;57.30
6863;DHT22;3470;48.738;9.616;2022-08-18T12:52:47;37.90;59.20
6863;DHT22;3470;48.738;9.616;2022-08-18T12:55:13;38.10;58.70
6863;DHT22;3470;48.738;9.616;2022-08-18T12:57:39;38.90;56.70
6863;DHT22;3470;48.738;9.616;2022-08-18T13:00:05;38.80;56.50
6863;DHT22;3470;48.738;9.616;2022-08-18T13:02:33;38.40;57.40
6863;DHT22;3470;48.738;9.616;2022-08-18T13:04:59;38.30;57.40
6863;DHT22;3470;48.738;9.616;2022-08-18T13:07:24;37.70;58.10
6863;DHT22;3470;48.738;9.616;2022-08-18T13:09:50;36.50;60.40
6863;DHT22;3470;48.738;9.616;2022-08-18T13:12:16;36.40;61.30
6863;DHT22;3470;48.738;9.616;2022-08-18T13:14:44;35.10;61.30
6863;DHT22;3470;48.738;9.616;2022-08-18T13:17:10;34.60;62.60
6863;DHT22;3470;48.738;9.616;2022-08-18T13:19:36;34.40;62.60
6863;DHT22;3470;48.738;9.616;2022-08-18T13:22:03;34.10;63.00
6863;DHT22;3470;48.738;9.616;2022-08-18T13:24:29;33.90;63.60
6863;DHT22;3470;48.738;9.616;2022-08-18T13:26:54;33.40;65.80
6863;DHT22;3470;48.738;9.616;2022-08-18T13:29:20;33.30;67.10
6863;DHT22;3470;48.738;9.616;2022-08-18T13:31:46;33.30;66.50
6863;DHT22;3470;48.738;9.616;2022-08-18T13:34:12;32.90;67.70
6863;DHT22;3470;48.738;9.616;2022-08-18T13:36:38;33.20;66.30
6863;DHT22;3470;48.738;9.616;2022-08-18T13:39:14;33.90;65.80
6863;DHT22;3470;48.738;9.616;2022-08-18T13:41:41;33.70;64.80
6863;DHT22;3470;48.738;9.616;2022-08-18T13:44:08;33.60;65.90
6863;DHT22;3470;48.738;9.616;2022-08-18T13:46:34;32.80;66.60
6863;DHT22;3470;48.738;9.616;2022-08-18T13:49:10;32.50;66.80
6863;DHT22;3470;48.738;9.616;2022-08-18T13:51:36;32.80;67.10
6863;DHT22;3470;48.738;9.616;2022-08-18T13:54:01;33.30;66.40
6863;DHT22;3470;48.738;9.616;2022-08-18T13:56:27;33.70;66.50
6863;DHT22;3470;48.738;9.616;2022-08-18T13:58:52;33.70;64.10
6863;DHT22;3470;48.738;9.616;2022-08-18T14:01:18;34.10;63.30
6863;DHT22;3470;48.738;9.616;2022-08-18T14:03:44;34.10;63.40
6863;DHT22;3470;48.738;9.616;2022-08-18T14:06:09;33.90;62.70
6863;DHT22;3470;48.738;9.616;2022-08-18T14:08:35;34.10;61.80
6863;DHT22;3470;48.738;9.616;2022-08-18T14:11:01;34.30;61.00
6863;DHT22;3470;48.738;9.616;2022-08-18T14:13:28;34.80;59.90
6863;DHT22;3470;48.738;9.616;2022-08-18T14:15:55;34.60;61.60
6863;DHT22;3470;48.738;9.616;2022-08-18T14:18:25;34.70;60.60
6863;DHT22;3470;48.738;9.616;2022-08-18T14:20:51;34.40;60.80
6863;DHT22;3470;48.738;9.616;2022-08-18T14:23:36;34.90;60.10
6863;DHT22;3470;48.738;9.616;2022-08-18T14:26:11;34.80;60.30
6863;DHT22;3470;48.738;9.616;2022-08-18T14:28:55;34.90;61.10
6863;DHT22;3470;48.738;9.616;2022-08-18T14:31:21;33.80;62.00
6863;DHT22;3470;48.738;9.616;2022-08-18T14:33:47;33.50;64.60
6863;DHT22;3470;48.738;9.616;2022-08-18T14:36:14;33.20;64.60
6863;DHT22;3470;48.738;9.616;2022-08-18T14:38:40;32.80;65.70
6863;DHT22;3470;48.738;9.616;2022-08-18T14:41:09;32.20;67.50
6863;DHT22;3470;48.738;9.616;2022-08-18T14:43:34;31.60;68.60
6863;DHT22;3470;48.738;9.616;2022-08-18T14:46:01;31.50;69.70
6863;DHT22;3470;48.738;9.616;2022-08-18T14:48:27;31.10;67.90
6863;DHT22;3470;48.738;9.616;2022-08-18T14:50:54;31.10;68.90
6863;DHT22;3470;48.738;9.616;2022-08-18T14:53:22;31.00;68.00
6863;DHT22;3470;48.738;9.616;2022-08-18T14:55:49;30.70;68.20
6863;DHT22;3470;48.738;9.616;2022-08-18T14:58:20;30.70;69.90
6863;DHT22;3470;48.738;9.616;2022-08-18T15:00:46;30.40;71.00
6863;DHT22;3470;48.738;9.616;2022-08-18T15:03:12;30.30;72.00
6863;DHT22;3470;48.738;9.616;2022-08-18T15:05:38;30.40;71.30
6863;DHT22;3470;48.738;9.616;2022-08-18T15:08:04;30.40;71.30
6863;DHT22;3470;48.738;9.616;2022-08-18T15:10:30;30.40;71.70
6863;DHT22;3470;48.738;9.616;2022-08-18T15:12:57;30.20;71.70
6863;DHT22;3470;48.738;9.616;2022-08-18T15:15:24;30.20;72.70
6863;DHT22;3470;48.738;9.616;2022-08-18T15:17:50;30.10;71.50
6863;DHT22;3470;48.738;9.616;2022-08-18T15:20:16;30.10;71.30
6863;DHT22;3470;48.738;9.616;2022-08-18T15:22:44;30.00;72.10
6863;DHT22;3470;48.738;9.616;2022-08-18T15:25:29;29.70;73.60
6863;DHT22;3470;48.738;9.616;2022-08-18T15:28:13;29.40;74.10
6863;DHT22;3470;48.738;9.616;2022-08-18T15:30:43;29.20;73.60
6863;DHT22;3470;48.738;9.616;2022-08-18T15:33:09;29.40;73.70
6863;DHT22;3470;48.738;9.616;2022-08-18T15:35:35;29.90;73.10
6863;DHT22;3470;48.738;9.616;2022-08-18T15:38:03;30.40;72.60
6863;DHT22;3470;48.738;9.616;2022-08-18T15:40:29;30.60;71.10
6863;DHT22;3470;48.738;9.616;2022-08-18T15:42:57;30.50;71.00
6863;DHT22;3470;48.738;9.616;2022-08-18T15:45:29;30.20;71.70
6863;DHT22;3470;48.738;9.616;2022-08-18T15:47:57;29.70;72.70
6863;DHT22;3470;48.738;9.616;2022-08-18T15:50:22;29.30;74.30
6863;DHT22;3470;48.738;9.616;2022-08-18T15:52:54;28.90;74.60
6863;DHT22;3470;48.738;9.616;2022-08-18T15:55:23;28.70;76.00
6863;DHT22;3470;48.738;9.616;2022-08-18T15:57:51;28.40;76.70
6863;DHT22;3470;48.738;9.616;2022-08-18T16:00:18;28.20;77.10
6863;DHT22;3470;48.738;9.616;2022-08-18T16:02:53;28.00;77.90
6863;DHT22;3470;48.738;9.616;2022-08-18T16:05:25;27.90;78.80
6863;DHT22;3470;48.738;9.616;2022-08-18T16:07:51;27.80;78.20
6863;DHT22;3470;48.738;9.616;2022-08-18T16:10:19;27.70;78.70
6863;DHT22;3470;48.738;9.616;2022-08-18T16:12:46;27.50;78.70
6863;DHT22;3470;48.738;9.616;2022-08-18T16:15:14;27.30;79.20
6863;DHT22;3470;48.738;9.616;2022-08-18T16:17:40;27.30;80.20
6863;DHT22;3470;48.738;9.616;2022-08-18T16:20:06;27.10;80.10
6863;DHT22;3470;48.738;9.616;2022-08-18T16:22:33;26.90;80.30
6863;DHT22;3470;48.738;9.616;2022-08-18T16:24:59;26.90;81.20
6863;DHT22;3470;48.738;9.616;2022-08-18T16:27:28;26.80;81.80
6863;DHT22;3470;48.738;9.616;2022-08-18T16:29:55;26.80;82.70
6863;DHT22;3470;48.738;9.616;2022-08-18T16:32:21;26.80;82.80
6863;DHT22;3470;48.738;9.616;2022-08-18T16:34:47;26.70;83.00
6863;DHT22;3470;48.738;9.616;2022-08-18T16:37:13;26.50;83.20
6863;DHT22;3470;48.738;9.616;2022-08-18T16:39:39;26.50;83.20
6863;DHT22;3470;48.738;9.616;2022-08-18T16:42:05;26.30;83.40
6863;DHT22;3470;48.738;9.616;2022-08-18T16:44:31;26.20;84.20
6863;DHT22;3470;48.738;9.616;2022-08-18T16:46:58;26.20;84.60
6863;DHT22;3470;48.738;9.616;2022-08-18T16:49:26;26.10;84.50
6863;DHT22;3470;48.738;9.616;2022-08-18T16:51:52;25.90;84.70
6863;DHT22;3470;48.738;9.616;2022-08-18T16:54:18;25.90;85.00
6863;DHT22;3470;48.738;9.616;2022-08-18T16:56:44;25.80;85.60
6863;DHT22;3470;48.738;9.616;2022-08-18T16:59:09;25.70;85.30
6863;DHT22;3470;48.738;9.616;2022-08-18T17:01:54;25.60;85.60
6863;DHT22;3470;48.738;9.616;2022-08-18T17:04:39;25.50;86.10
6863;DHT22;3470;48.738;9.616;2022-08-18T17:07:05;25.40;86.10
6863;DHT22;3470;48.738;9.616;2022-08-18T17:09:32;25.30;86.40
6863;DHT22;3470;48.738;9.616;2022-08-18T17:11:58;25.20;86.40
6863;DHT22;3470;48.738;9.616;2022-08-18T17:14:26;25.10;86.80
6863;DHT22;3470;48.738;9.616;2022-08-18T17:16:53;25.00;86.90
6863;DHT22;3470;48.738;9.616;2022-08-18T17:19:22;24.90;87.10
6863;DHT22;3470;48.738;9.616;2022-08-18T17:21:48;24.80;87.70
6863;DHT22;3470;48.738;9.616;2022-08-18T17:24:14;24.80;87.60
6863;DHT22;3470;48.738;9.616;2022-08-18T17:27:00;24.70;88.20
6863;DHT22;3470;48.738;9.616;2022-08-18T17:29:46;24.70;88.40
6863;DHT22;3470;48.738;9.616;2022-08-18T17:35:20;24.50;88.00
6863;DHT22;3470;48.738;9.616;2022-08-18T17:37:51;24.50;88.20
6863;DHT22;3470;48.738;9.616;2022-08-18T17:40:32;24.40;88.20
6863;DHT22;3470;48.738;9.616;2022-08-18T17:43:00;24.30;88.90
6863;DHT22;3470;48.738;9.616;2022-08-18T17:45:29;24.30;88.70
6863;DHT22;3470;48.738;9.616;2022-08-18T17:48:10;24.20;88.80
6863;DHT22;3470;48.738;9.616;2022-08-18T17:50:52;24.20;89.10
6863;DHT22;3470;48.738;9.616;2022-08-18T17:53:38;24.10;89.60
6863;DHT22;3470;48.738;9.616;2022-08-18T17:58:44;24.10;89.40
6863;DHT22;3470;48.738;9.616;2022-08-18T18:01:12;24.10;89.30
6863;DHT22;3470;48.738;9.616;2022-08-18T18:03:39;24.10;89.60
6863;DHT22;3470;48.738;9.616;2022-08-18T18:06:17;24.00;89.80
6863;DHT22;3470;48.738;9.616;2022-08-18T18:08:56;23.90;90.00
6863;DHT22;3470;48.738;9.616;2022-08-18T18:11:29;23.80;90.30
6863;DHT22;3470;48.738;9.616;2022-08-18T18:13:57;23.70;90.30
6863;DHT22;3470;48.738;9.616;2022-08-18T18:19:00;23.60;90.60
6863;DHT22;3470;48.738;9.616;2022-08-18T18:21:29;23.50;90.80
6863;DHT22;3470;48.738;9.616;2022-08-18T18:26:42;23.40;91.70
6863;DHT22;3470;48.738;9.616;2022-08-18T18:31:56;23.20;92.60
6863;DHT22;3470;48.738;9.616;2022-08-18T18:36:58;23.00;93.50